sensor_id;sensor_type;location;lat;lon;timestamp;P1;durP1;ratioP1;P2;durP2;ratioP2
3299;SDS011;1662;49.310;8.134;2023-04-30T00:00:10;12.50;;;11.20;;
3299;SDS011;1662;49.310;8.134;2023-04-30T00:02:36;13.90;;;12.60;;
3299;SDS011;1662;49.310;8.134;2023-04-30T00:05:02;10.33;;;9.43;;
3299;SDS011;1662;49.310;8.134;2023-04-30T00:07:28;11.37;;;10.37;;
3299;SDS011;1662;49.310;8.134;2023-04-30T00:09:54;10.77;;;9.67;;
3299;SDS011;1662;49.310;8.134;2023-04-30T00:12:20;11.97;;;10.50;;
3299;SDS011;1662;49.310;8.134;2023-04-30T00:14:45;11.73;;;10.53;;
3299;SDS011;1662;49.310;8.134;2023-04-30T00:17:11;12.87;;;11.57;;
3299;SDS011;1662;49.310;8.134;2023-04-30T00:19:37;10.60;;;9.57;;
3299;SDS011;1662;49.310;8.134;2023-04-30T00:22:02;12.50;;;11.30;;
3299;SDS011;1662;49.310;8.134;2023-04-30T00:24:30;12.87;;;11.57;;
3299;SDS011;1662;49.310;8.134;2023-04-30T00:26:56;12.60;;;11.30;;
3299;SDS011;1662;49.310;8.134;2023-04-30T00:29:21;12.17;;;10.97;;
3299;SDS011;1662;49.310;8.134;2023-04-30T00:31:47;12.90;;;11.60;;
3299;SDS011;1662;49.310;8.134;2023-04-30T00:34:12;12.33;;;10.60;;
3299;SDS011;1662;49.310;8.134;2023-04-30T00:36:39;12.67;;;11.37;;
3299;SDS011;1662;49.310;8.134;2023-04-30T00:39:04;11.07;;;10.07;;
3299;SDS011;1662;49.310;8.134;2023-04-30T00:41:30;13.27;;;11.47;;
3299;SDS011;1662;49.310;8.134;2023-04-30T00:43:57;11.27;;;10.20;;
3299;SDS011;1662;49.310;8.134;2023-04-30T00:46:22;12.30;;;11.10;;
3299;SDS011;1662;49.310;8.134;2023-04-30T00:48:48;12.77;;;11.47;;
3299;SDS011;1662;49.310;8.134;2023-04-30T00:51:14;12.70;;;11.47;;
3299;SDS011;1662;49.310;8.134;2023-04-30T00:53:40;12.70;;;11.50;;
3299;SDS011;1662;49.310;8.134;2023-04-30T00:56:07;13.43;;;11.37;;
3299;SDS011;1662;49.310;8.134;2023-04-30T00:58:34;10.50;;;9.60;;
3299;SDS011;1662;49.310;8.134;2023-04-30T01:01:01;13.70;;;12.23;;
3299;SDS011;1662;49.310;8.134;2023-04-30T01:03:28;12.23;;;11.00;;
3299;SDS011;1662;49.310;8.134;2023-04-30T01:05:53;12.90;;;11.70;;
3299;SDS011;1662;49.310;8.134;2023-04-30T01:08:19;11.53;;;10.33;;
3299;SDS011;1662;49.310;8.134;2023-04-30T01:13:27;12.43;;;11.23;;
3299;SDS011;1662;49.310;8.134;2023-04-30T01:16:06;13.40;;;12.07;;
3299;SDS011;1662;49.310;8.134;2023-04-30T01:18:48;12.23;;;11.03;;
3299;SDS011;1662;49.310;8.134;2023-04-30T01:21:18;12.77;;;11.47;;
3299;SDS011;1662;49.310;8.134;2023-04-30T01:29:11;10.83;;;9.90;;
3299;SDS011;1662;49.310;8.134;2023-04-30T01:31:38;12.33;;;11.03;;
3299;SDS011;1662;49.310;8.134;2023-04-30T01:34:10;13.23;;;11.93;;
3299;SDS011;1662;49.310;8.134;2023-04-30T01:48:02;14.40;;;13.00;;
3299;SDS011;1662;49.310;8.134;2023-04-30T01:50:57;13.63;;;12.33;;
3299;SDS011;1662;49.310;8.134;2023-04-30T01:53:39;13.37;;;12.07;;
3299;SDS011;1662;49.310;8.134;2023-04-30T01:56:09;17.50;;;12.90;;
3299;SDS011;1662;49.310;8.134;2023-04-30T01:58:38;13.73;;;12.33;;
3299;SDS011;1662;49.310;8.134;2023-04-30T02:01:04;15.50;;;13.90;;
3299;SDS011;1662;49.310;8.134;2023-04-30T02:03:31;16.13;;;14.53;;
3299;SDS011;1662;49.310;8.134;2023-04-30T02:05:57;14.57;;;13.13;;
3299;SDS011;1662;49.310;8.134;2023-04-30T02:08:23;15.37;;;13.77;;
3299;SDS011;1662;49.310;8.134;2023-04-30T02:10:49;17.80;;;14.40;;
3299;SDS011;1662;49.310;8.134;2023-04-30T02:13:14;15.67;;;14.07;;
3299;SDS011;1662;49.310;8.134;2023-04-30T02:15:40;19.60;;;14.70;;
3299;SDS011;1662;49.310;8.134;2023-04-30T02:18:05;16.53;;;14.73;;
3299;SDS011;1662;49.310;8.134;2023-04-30T02:20:31;15.10;;;13.53;;
3299;SDS011;1662;49.310;8.134;2023-04-30T02:22:56;13.43;;;12.03;;
3299;SDS011;1662;49.310;8.134;2023-04-30T02:25:22;16.53;;;14.93;;
3299;SDS011;1662;49.310;8.134;2023-04-30T02:27:48;17.37;;;14.97;;
3299;SDS011;1662;49.310;8.134;2023-04-30T02:30:15;15.80;;;14.20;;
3299;SDS011;1662;49.310;8.134;2023-04-30T02:32:41;17.57;;;14.83;;
3299;SDS011;1662;49.310;8.134;2023-04-30T02:35:09;14.80;;;13.40;;
3299;SDS011;1662;49.310;8.134;2023-04-30T02:37:34;16.20;;;13.23;;
3299;SDS011;1662;49.310;8.134;2023-04-30T02:40:00;15.47;;;13.93;;
3299;SDS011;1662;49.310;8.134;2023-04-30T02:42:25;15.63;;;14.10;;
3299;SDS011;1662;49.310;8.134;2023-04-30T02:44:51;18.93;;;15.60;;
3299;SDS011;1662;49.310;8.134;2023-04-30T02:47:16;15.90;;;14.20;;
3299;SDS011;1662;49.310;8.134;2023-04-30T02:49:42;20.47;;;16.73;;
3299;SDS011;1662;49.310;8.134;2023-04-30T02:52:08;13.53;;;12.27;;
3299;SDS011;1662;49.310;8.134;2023-04-30T02:54:33;16.03;;;14.43;;
3299;SDS011;1662;49.310;8.134;2023-04-30T02:56:59;13.23;;;12.03;;
3299;SDS011;1662;49.310;8.134;2023-04-30T02:59:25;16.80;;;14.43;;
3299;SDS011;1662;49.310;8.134;2023-04-30T03:01:51;15.40;;;13.90;;
3299;SDS011;1662;49.310;8.134;2023-04-30T03:04:19;15.30;;;13.70;;
3299;SDS011;1662;49.310;8.134;2023-04-30T03:06:45;16.83;;;15.20;;
3299;SDS011;1662;49.310;8.134;2023-04-30T03:09:10;16.03;;;14.33;;
3299;SDS011;1662;49.310;8.134;2023-04-30T03:11:36;15.20;;;13.30;;
3299;SDS011;1662;49.310;8.134;2023-04-30T03:14:02;16.00;;;13.43;;
3299;SDS011;1662;49.310;8.134;2023-04-30T03:16:28;14.90;;;13.40;;
3299;SDS011;1662;49.310;8.134;2023-04-30T03:18:55;16.07;;;14.43;;
3299;SDS011;1662;49.310;8.134;2023-04-30T03:21:22;15.83;;;13.00;;
3299;SDS011;1662;49.310;8.134;2023-04-30T03:23:50;15.67;;;14.10;;
3299;SDS011;1662;49.310;8.134;2023-04-30T03:26:16;15.50;;;13.90;;
3299;SDS011;1662;49.310;8.134;2023-04-30T03:28:42;16.60;;;14.90;;
3299;SDS011;1662;49.310;8.134;2023-04-30T03:31:07;15.53;;;13.93;;
3299;SDS011;1662;49.310;8.134;2023-04-30T03:33:33;16.10;;;13.93;;
3299;SDS011;1662;49.310;8.134;2023-04-30T03:35:58;16.13;;;14.47;;
3299;SDS011;1662;49.310;8.134;2023-04-30T03:38:24;15.60;;;13.53;;
3299;SDS011;1662;49.310;8.134;2023-04-30T03:40:52;17.70;;;14.87;;
3299;SDS011;1662;49.310;8.134;2023-04-30T03:43:18;15.93;;;14.37;;
3299;SDS011;1662;49.310;8.134;2023-04-30T03:45:43;16.93;;;15.00;;
3299;SDS011;1662;49.310;8.134;2023-04-30T03:48:11;15.70;;;14.30;;
3299;SDS011;1662;49.310;8.134;2023-04-30T03:50:37;13.27;;;12.03;;
3299;SDS011;1662;49.310;8.134;2023-04-30T03:53:05;14.47;;;13.07;;
3299;SDS011;1662;49.310;8.134;2023-04-30T03:55:31;15.63;;;13.90;;
3299;SDS011;1662;49.310;8.134;2023-04-30T03:57:57;18.30;;;14.33;;
3299;SDS011;1662;49.310;8.134;2023-04-30T04:00:23;18.77;;;13.10;;
3299;SDS011;1662;49.310;8.134;2023-04-30T04:02:49;15.17;;;13.57;;
3299;SDS011;1662;49.310;8.134;2023-04-30T04:05:15;14.63;;;13.07;;
3299;SDS011;1662;49.310;8.134;2023-04-30T04:07:40;17.03;;;14.80;;
3299;SDS011;1662;49.310;8.134;2023-04-30T04:10:06;17.00;;;15.27;;
3299;SDS011;1662;49.310;8.134;2023-04-30T04:12:32;16.40;;;13.53;;
3299;SDS011;1662;49.310;8.134;2023-04-30T04:14:57;14.93;;;13.50;;
3299;SDS011;1662;49.310;8.134;2023-04-30T04:17:23;17.47;;;14.13;;
3299;SDS011;1662;49.310;8.134;2023-04-30T04:19:48;15.43;;;13.93;;
3299;SDS011;1662;49.310;8.134;2023-04-30T04:22:14;17.73;;;15.20;;
3299;SDS011;1662;49.310;8.134;2023-04-30T04:24:40;17.47;;;15.77;;
3299;SDS011;1662;49.310;8.134;2023-04-30T04:27:07;17.80;;;15.10;;
3299;SDS011;1662;49.310;8.134;2023-04-30T04:29:33;18.30;;;15.20;;
3299;SDS011;1662;49.310;8.134;2023-04-30T04:31:59;17.33;;;15.27;;
3299;SDS011;1662;49.310;8.134;2023-04-30T04:34:26;16.30;;;14.60;;
3299;SDS011;1662;49.310;8.134;2023-04-30T04:36:52;16.80;;;14.53;;
3299;SDS011;1662;49.310;8.134;2023-04-30T04:39:17;19.40;;;16.13;;
3299;SDS011;1662;49.310;8.134;2023-04-30T04:41:43;17.23;;;15.43;;
3299;SDS011;1662;49.310;8.134;2023-04-30T04:44:08;17.53;;;15.50;;
3299;SDS011;1662;49.310;8.134;2023-04-30T04:46:34;18.27;;;16.37;;
3299;SDS011;1662;49.310;8.134;2023-04-30T04:49:02;16.60;;;14.17;;
3299;SDS011;1662;49.310;8.134;2023-04-30T04:51:28;18.00;;;15.80;;
3299;SDS011;1662;49.310;8.134;2023-04-30T04:53:53;19.90;;;16.90;;
3299;SDS011;1662;49.310;8.134;2023-04-30T04:56:19;18.90;;;15.80;;
3299;SDS011;1662;49.310;8.134;2023-04-30T04:58:44;18.83;;;17.00;;
3299;SDS011;1662;49.310;8.134;2023-04-30T05:01:11;15.47;;;13.90;;
3299;SDS011;1662;49.310;8.134;2023-04-30T05:03:37;17.67;;;15.33;;
3299;SDS011;1662;49.310;8.134;2023-04-30T05:06:05;21.20;;;16.87;;
3299;SDS011;1662;49.310;8.134;2023-04-30T05:08:31;16.23;;;13.93;;
3299;SDS011;1662;49.310;8.134;2023-04-30T05:10:56;17.50;;;15.07;;
3299;SDS011;1662;49.310;8.134;2023-04-30T05:13:22;17.50;;;14.23;;
3299;SDS011;1662;49.310;8.134;2023-04-30T05:15:49;19.63;;;14.60;;
3299;SDS011;1662;49.310;8.134;2023-04-30T05:18:16;15.13;;;13.63;;
3299;SDS011;1662;49.310;8.134;2023-04-30T05:20:41;16.07;;;14.50;;
3299;SDS011;1662;49.310;8.134;2023-04-30T05:23:07;17.30;;;15.47;;
3299;SDS011;1662;49.310;8.134;2023-04-30T05:25:34;17.13;;;15.33;;
3299;SDS011;1662;49.310;8.134;2023-04-30T05:28:00;16.80;;;14.60;;
3299;SDS011;1662;49.310;8.134;2023-04-30T05:30:26;15.87;;;14.17;;
3299;SDS011;1662;49.310;8.134;2023-04-30T05:32:51;18.40;;;14.93;;
3299;SDS011;1662;49.310;8.134;2023-04-30T05:35:17;16.63;;;14.37;;
3299;SDS011;1662;49.310;8.134;2023-04-30T05:37:43;15.73;;;14.00;;
3299;SDS011;1662;49.310;8.134;2023-04-30T05:40:10;16.73;;;15.00;;
3299;SDS011;1662;49.310;8.134;2023-04-30T05:42:36;14.13;;;12.70;;
3299;SDS011;1662;49.310;8.134;2023-04-30T05:45:04;17.87;;;13.97;;
3299;SDS011;1662;49.310;8.134;2023-04-30T05:47:31;15.97;;;14.37;;
3299;SDS011;1662;49.310;8.134;2023-04-30T05:49:56;16.10;;;14.40;;
3299;SDS011;1662;49.310;8.134;2023-04-30T05:52:22;16.77;;;13.90;;
3299;SDS011;1662;49.310;8.134;2023-04-30T05:54:47;21.20;;;15.50;;
3299;SDS011;1662;49.310;8.134;2023-04-30T05:57:13;14.87;;;13.47;;
3299;SDS011;1662;49.310;8.134;2023-04-30T05:59:39;15.37;;;13.63;;
3299;SDS011;1662;49.310;8.134;2023-04-30T06:02:05;15.77;;;14.20;;
3299;SDS011;1662;49.310;8.134;2023-04-30T06:04:31;16.13;;;14.43;;
3299;SDS011;1662;49.310;8.134;2023-04-30T06:06:56;16.40;;;14.70;;
3299;SDS011;1662;49.310;8.134;2023-04-30T06:09:22;16.50;;;14.80;;
3299;SDS011;1662;49.310;8.134;2023-04-30T06:11:51;15.83;;;14.13;;
3299;SDS011;1662;49.310;8.134;2023-04-30T06:14:17;17.63;;;15.83;;
3299;SDS011;1662;49.310;8.134;2023-04-30T06:16:46;17.90;;;16.13;;
3299;SDS011;1662;49.310;8.134;2023-04-30T06:19:12;15.93;;;14.10;;
3299;SDS011;1662;49.310;8.134;2023-04-30T06:21:37;20.83;;;14.50;;
3299;SDS011;1662;49.310;8.134;2023-04-30T06:24:04;15.33;;;13.70;;
3299;SDS011;1662;49.310;8.134;2023-04-30T06:26:30;16.63;;;15.03;;
3299;SDS011;1662;49.310;8.134;2023-04-30T06:28:56;20.10;;;15.03;;
3299;SDS011;1662;49.310;8.134;2023-04-30T06:31:22;16.63;;;14.83;;
3299;SDS011;1662;49.310;8.134;2023-04-30T06:33:48;15.17;;;13.57;;
3299;SDS011;1662;49.310;8.134;2023-04-30T06:36:14;16.93;;;15.23;;
3299;SDS011;1662;49.310;8.134;2023-04-30T06:38:40;13.87;;;12.40;;
3299;SDS011;1662;49.310;8.134;2023-04-30T06:41:06;15.13;;;13.77;;
3299;SDS011;1662;49.310;8.134;2023-04-30T06:43:32;16.47;;;14.77;;
3299;SDS011;1662;49.310;8.134;2023-04-30T06:45:58;17.20;;;15.10;;
3299;SDS011;1662;49.310;8.134;2023-04-30T06:48:23;16.00;;;14.37;;
3299;SDS011;1662;49.310;8.134;2023-04-30T06:50:49;15.90;;;13.93;;
3299;SDS011;1662;49.310;8.134;2023-04-30T06:53:15;15.90;;;14.30;;
3299;SDS011;1662;49.310;8.134;2023-04-30T06:55:41;15.70;;;14.27;;
3299;SDS011;1662;49.310;8.134;2023-04-30T06:58:07;20.90;;;15.17;;
3299;SDS011;1662;49.310;8.134;2023-04-30T07:00:33;17.07;;;15.20;;
3299;SDS011;1662;49.310;8.134;2023-04-30T07:02:59;18.90;;;15.80;;
3299;SDS011;1662;49.310;8.134;2023-04-30T07:05:26;16.57;;;14.33;;
3299;SDS011;1662;49.310;8.134;2023-04-30T07:07:53;16.43;;;14.83;;
3299;SDS011;1662;49.310;8.134;2023-04-30T07:10:18;15.13;;;13.50;;
3299;SDS011;1662;49.310;8.134;2023-04-30T07:12:44;15.17;;;13.77;;
3299;SDS011;1662;49.310;8.134;2023-04-30T07:15:10;16.90;;;15.20;;
3299;SDS011;1662;49.310;8.134;2023-04-30T07:17:36;17.03;;;15.33;;
3299;SDS011;1662;49.310;8.134;2023-04-30T07:20:02;15.93;;;14.33;;
3299;SDS011;1662;49.310;8.134;2023-04-30T07:22:29;16.53;;;12.87;;
3299;SDS011;1662;49.310;8.134;2023-04-30T07:24:55;16.67;;;15.07;;
3299;SDS011;1662;49.310;8.134;2023-04-30T07:27:21;15.93;;;14.33;;
3299;SDS011;1662;49.310;8.134;2023-04-30T07:29:46;16.70;;;14.17;;
3299;SDS011;1662;49.310;8.134;2023-04-30T07:32:12;15.47;;;12.50;;
3299;SDS011;1662;49.310;8.134;2023-04-30T07:34:38;14.70;;;13.20;;
3299;SDS011;1662;49.310;8.134;2023-04-30T07:37:04;17.10;;;14.40;;
3299;SDS011;1662;49.310;8.134;2023-04-30T07:39:30;18.07;;;15.27;;
3299;SDS011;1662;49.310;8.134;2023-04-30T07:41:55;14.70;;;12.30;;
3299;SDS011;1662;49.310;8.134;2023-04-30T07:44:21;15.00;;;13.60;;
3299;SDS011;1662;49.310;8.134;2023-04-30T07:46:46;14.63;;;13.33;;
3299;SDS011;1662;49.310;8.134;2023-04-30T07:49:12;15.47;;;13.13;;
3299;SDS011;1662;49.310;8.134;2023-04-30T07:51:38;13.83;;;12.53;;
3299;SDS011;1662;49.310;8.134;2023-04-30T07:54:03;17.53;;;14.50;;
3299;SDS011;1662;49.310;8.134;2023-04-30T07:56:29;15.30;;;13.70;;
3299;SDS011;1662;49.310;8.134;2023-04-30T07:58:57;15.60;;;13.90;;
3299;SDS011;1662;49.310;8.134;2023-04-30T08:01:23;13.60;;;12.40;;
3299;SDS011;1662;49.310;8.134;2023-04-30T08:03:48;12.33;;;11.17;;
3299;SDS011;1662;49.310;8.134;2023-04-30T08:06:14;13.83;;;12.57;;
3299;SDS011;1662;49.310;8.134;2023-04-30T08:08:40;13.00;;;11.60;;
3299;SDS011;1662;49.310;8.134;2023-04-30T08:11:05;12.70;;;11.13;;
3299;SDS011;1662;49.310;8.134;2023-04-30T08:13:34;12.90;;;11.83;;
3299;SDS011;1662;49.310;8.134;2023-04-30T08:16:00;12.90;;;11.60;;
3299;SDS011;1662;49.310;8.134;2023-04-30T08:18:26;13.30;;;12.00;;
3299;SDS011;1662;49.310;8.134;2023-04-30T08:20:52;14.10;;;12.70;;
3299;SDS011;1662;49.310;8.134;2023-04-30T08:23:17;11.33;;;10.10;;
3299;SDS011;1662;49.310;8.134;2023-04-30T08:25:43;13.13;;;11.80;;
3299;SDS011;1662;49.310;8.134;2023-04-30T08:28:08;11.73;;;10.57;;
3299;SDS011;1662;49.310;8.134;2023-04-30T08:30:34;11.73;;;10.63;;
3299;SDS011;1662;49.310;8.134;2023-04-30T08:32:59;11.13;;;10.13;;
3299;SDS011;1662;49.310;8.134;2023-04-30T08:35:25;11.63;;;10.43;;
3299;SDS011;1662;49.310;8.134;2023-04-30T08:37:53;9.00;;;7.93;;
3299;SDS011;1662;49.310;8.134;2023-04-30T08:40:19;10.20;;;8.37;;
3299;SDS011;1662;49.310;8.134;2023-04-30T08:42:49;8.27;;;7.47;;
3299;SDS011;1662;49.310;8.134;2023-04-30T08:45:21;7.97;;;7.37;;
3299;SDS011;1662;49.310;8.134;2023-04-30T08:47:47;8.63;;;7.80;;
3299;SDS011;1662;49.310;8.134;2023-04-30T08:50:13;9.87;;;9.00;;
3299;SDS011;1662;49.310;8.134;2023-04-30T08:52:39;8.17;;;7.47;;
3299;SDS011;1662;49.310;8.134;2023-04-30T08:55:07;6.90;;;6.40;;
3299;SDS011;1662;49.310;8.134;2023-04-30T08:57:35;6.93;;;6.17;;
3299;SDS011;1662;49.310;8.134;2023-04-30T09:00:01;7.53;;;6.97;;
3299;SDS011;1662;49.310;8.134;2023-04-30T09:02:30;7.03;;;6.30;;
3299;SDS011;1662;49.310;8.134;2023-04-30T09:04:56;6.57;;;5.20;;
3299;SDS011;1662;49.310;8.134;2023-04-30T09:07:22;6.23;;;5.93;;
3299;SDS011;1662;49.310;8.134;2023-04-30T09:09:53;5.37;;;4.97;;
3299;SDS011;1662;49.310;8.134;2023-04-30T09:12:19;4.60;;;4.20;;
3299;SDS011;1662;49.310;8.134;2023-04-30T09:17:32;4.93;;;4.60;;
3299;SDS011;1662;49.310;8.134;2023-04-30T09:20:05;5.20;;;4.80;;
3299;SDS011;1662;49.310;8.134;2023-04-30T09:22:38;5.93;;;4.90;;
3299;SDS011;1662;49.310;8.134;2023-04-30T09:25:05;5.57;;;5.17;;
3299;SDS011;1662;49.310;8.134;2023-04-30T09:27:32;5.13;;;4.83;;
3299;SDS011;1662;49.310;8.134;2023-04-30T09:29:57;5.00;;;4.60;;
3299;SDS011;1662;49.310;8.134;2023-04-30T09:32:25;4.90;;;4.70;;
3299;SDS011;1662;49.310;8.134;2023-04-30T09:34:51;6.43;;;4.93;;
3299;SDS011;1662;49.310;8.134;2023-04-30T09:37:17;4.90;;;4.70;;
3299;SDS011;1662;49.310;8.134;2023-04-30T09:39:49;5.30;;;4.90;;
3299;SDS011;1662;49.310;8.134;2023-04-30T09:42:18;4.87;;;4.57;;
3299;SDS011;1662;49.310;8.134;2023-04-30T09:44:45;5.40;;;4.90;;
3299;SDS011;1662;49.310;8.134;2023-04-30T09:47:15;4.60;;;4.40;;
3299;SDS011;1662;49.310;8.134;2023-04-30T09:49:42;4.60;;;4.40;;
3299;SDS011;1662;49.310;8.134;2023-04-30T09:52:13;4.40;;;4.13;;
3299;SDS011;1662;49.310;8.134;2023-04-30T09:54:39;4.67;;;4.37;;
3299;SDS011;1662;49.310;8.134;2023-04-30T09:57:08;4.83;;;4.60;;
3299;SDS011;1662;49.310;8.134;2023-04-30T09:59:35;4.87;;;4.57;;
3299;SDS011;1662;49.310;8.134;2023-04-30T10:02:03;4.43;;;4.23;;
3299;SDS011;1662;49.310;8.134;2023-04-30T10:04:32;5.90;;;5.40;;
3299;SDS011;1662;49.310;8.134;2023-04-30T10:07:01;6.27;;;5.67;;
3299;SDS011;1662;49.310;8.134;2023-04-30T10:09:57;5.90;;;5.37;;
3299;SDS011;1662;49.310;8.134;2023-04-30T10:12:33;5.53;;;5.23;;
3299;SDS011;1662;49.310;8.134;2023-04-30T10:15:14;6.83;;;6.23;;
3299;SDS011;1662;49.310;8.134;2023-04-30T10:17:43;5.80;;;5.37;;
3299;SDS011;1662;49.310;8.134;2023-04-30T10:20:14;4.70;;;4.50;;
3299;SDS011;1662;49.310;8.134;2023-04-30T10:22:41;4.90;;;4.70;;
3299;SDS011;1662;49.310;8.134;2023-04-30T10:25:08;5.37;;;4.83;;
3299;SDS011;1662;49.310;8.134;2023-04-30T10:27:37;6.10;;;5.70;;
3299;SDS011;1662;49.310;8.134;2023-04-30T10:30:03;6.57;;;6.03;;
3299;SDS011;1662;49.310;8.134;2023-04-30T10:32:32;5.43;;;5.00;;
3299;SDS011;1662;49.310;8.134;2023-04-30T10:35:09;5.27;;;4.90;;
3299;SDS011;1662;49.310;8.134;2023-04-30T10:37:43;5.93;;;5.53;;
3299;SDS011;1662;49.310;8.134;2023-04-30T10:40:13;4.70;;;4.50;;
3299;SDS011;1662;49.310;8.134;2023-04-30T10:42:46;6.00;;;5.10;;
3299;SDS011;1662;49.310;8.134;2023-04-30T10:45:14;4.83;;;4.63;;
3299;SDS011;1662;49.310;8.134;2023-04-30T10:47:43;5.27;;;4.97;;
3299;SDS011;1662;49.310;8.134;2023-04-30T10:50:11;4.87;;;4.63;;
3299;SDS011;1662;49.310;8.134;2023-04-30T10:52:38;5.30;;;4.90;;
3299;SDS011;1662;49.310;8.134;2023-04-30T10:55:04;5.30;;;4.80;;
3299;SDS011;1662;49.310;8.134;2023-04-30T10:57:34;6.00;;;5.60;;
3299;SDS011;1662;49.310;8.134;2023-04-30T11:02:43;4.00;;;3.80;;
3299;SDS011;1662;49.310;8.134;2023-04-30T11:05:13;4.60;;;4.30;;
3299;SDS011;1662;49.310;8.134;2023-04-30T11:10:12;5.10;;;4.70;;
3299;SDS011;1662;49.310;8.134;2023-04-30T11:12:40;4.60;;;4.40;;
3299;SDS011;1662;49.310;8.134;2023-04-30T11:15:11;4.63;;;4.23;;
3299;SDS011;1662;49.310;8.134;2023-04-30T11:17:38;4.07;;;3.97;;
3299;SDS011;1662;49.310;8.134;2023-04-30T11:20:04;4.77;;;4.57;;
3299;SDS011;1662;49.310;8.134;2023-04-30T11:22:30;5.07;;;4.77;;
3299;SDS011;1662;49.310;8.134;2023-04-30T11:27:33;4.13;;;4.03;;
3299;SDS011;1662;49.310;8.134;2023-04-30T11:30:01;5.50;;;4.90;;
3299;SDS011;1662;49.310;8.134;2023-04-30T11:32:33;4.67;;;4.47;;
3299;SDS011;1662;49.310;8.134;2023-04-30T11:35:02;4.80;;;4.53;;
3299;SDS011;1662;49.310;8.134;2023-04-30T11:40:07;5.10;;;4.80;;
3299;SDS011;1662;49.310;8.134;2023-04-30T11:42:35;5.33;;;4.93;;
3299;SDS011;1662;49.310;8.134;2023-04-30T11:45:04;4.97;;;4.77;;
3299;SDS011;1662;49.310;8.134;2023-04-30T11:47:39;4.70;;;4.47;;
3299;SDS011;1662;49.310;8.134;2023-04-30T11:50:10;4.20;;;4.10;;
3299;SDS011;1662;49.310;8.134;2023-04-30T11:53:01;4.80;;;4.60;;
3299;SDS011;1662;49.310;8.134;2023-04-30T11:55:29;5.00;;;4.70;;
3299;SDS011;1662;49.310;8.134;2023-04-30T11:57:57;5.30;;;5.00;;
3299;SDS011;1662;49.310;8.134;2023-04-30T12:00:30;5.20;;;5.00;;
3299;SDS011;1662;49.310;8.134;2023-04-30T12:03:01;5.33;;;5.03;;
3299;SDS011;1662;49.310;8.134;2023-04-30T12:05:27;5.03;;;4.83;;
3299;SDS011;1662;49.310;8.134;2023-04-30T12:07:58;5.63;;;5.33;;
3299;SDS011;1662;49.310;8.134;2023-04-30T12:10:25;5.10;;;4.80;;
3299;SDS011;1662;49.310;8.134;2023-04-30T12:12:51;5.30;;;5.00;;
3299;SDS011;1662;49.310;8.134;2023-04-30T12:15:21;5.07;;;4.87;;
3299;SDS011;1662;49.310;8.134;2023-04-30T12:17:51;5.00;;;4.80;;
3299;SDS011;1662;49.310;8.134;2023-04-30T12:20:24;4.43;;;4.33;;
3299;SDS011;1662;49.310;8.134;2023-04-30T12:22:52;4.80;;;4.60;;
3299;SDS011;1662;49.310;8.134;2023-04-30T12:25:19;5.17;;;4.93;;
3299;SDS011;1662;49.310;8.134;2023-04-30T12:27:48;4.70;;;4.40;;
3299;SDS011;1662;49.310;8.134;2023-04-30T12:30:17;4.93;;;4.73;;
3299;SDS011;1662;49.310;8.134;2023-04-30T12:32:47;4.93;;;4.73;;
3299;SDS011;1662;49.310;8.134;2023-04-30T12:35:17;5.73;;;5.37;;
3299;SDS011;1662;49.310;8.134;2023-04-30T12:37:48;5.43;;;5.20;;
3299;SDS011;1662;49.310;8.134;2023-04-30T12:40:16;5.20;;;4.90;;
3299;SDS011;1662;49.310;8.134;2023-04-30T12:42:43;5.57;;;5.27;;
3299;SDS011;1662;49.310;8.134;2023-04-30T12:45:11;5.50;;;5.20;;
3299;SDS011;1662;49.310;8.134;2023-04-30T12:47:40;6.00;;;5.70;;
3299;SDS011;1662;49.310;8.134;2023-04-30T12:50:09;6.33;;;5.90;;
3299;SDS011;1662;49.310;8.134;2023-04-30T12:52:39;5.80;;;5.40;;
3299;SDS011;1662;49.310;8.134;2023-04-30T12:55:15;5.67;;;5.47;;
3299;SDS011;1662;49.310;8.134;2023-04-30T13:03:14;5.70;;;5.50;;
3299;SDS011;1662;49.310;8.134;2023-04-30T13:05:42;5.30;;;5.10;;
3299;SDS011;1662;49.310;8.134;2023-04-30T13:08:12;5.50;;;5.30;;
3299;SDS011;1662;49.310;8.134;2023-04-30T13:10:40;5.80;;;5.50;;
3299;SDS011;1662;49.310;8.134;2023-04-30T13:13:06;6.00;;;5.80;;
3299;SDS011;1662;49.310;8.134;2023-04-30T13:15:32;6.60;;;6.00;;
3299;SDS011;1662;49.310;8.134;2023-04-30T13:17:58;6.57;;;6.17;;
3299;SDS011;1662;49.310;8.134;2023-04-30T13:20:24;6.60;;;6.03;;
3299;SDS011;1662;49.310;8.134;2023-04-30T13:22:50;6.70;;;6.30;;
3299;SDS011;1662;49.310;8.134;2023-04-30T13:25:16;7.43;;;7.03;;
3299;SDS011;1662;49.310;8.134;2023-04-30T13:27:41;6.67;;;6.37;;
3299;SDS011;1662;49.310;8.134;2023-04-30T13:30:08;6.60;;;6.20;;
3299;SDS011;1662;49.310;8.134;2023-04-30T13:32:34;6.23;;;5.93;;
3299;SDS011;1662;49.310;8.134;2023-04-30T13:35:00;6.67;;;6.20;;
3299;SDS011;1662;49.310;8.134;2023-04-30T13:37:27;6.47;;;6.10;;
3299;SDS011;1662;49.310;8.134;2023-04-30T13:39:55;6.30;;;5.93;;
3299;SDS011;1662;49.310;8.134;2023-04-30T13:42:21;7.30;;;6.93;;
3299;SDS011;1662;49.310;8.134;2023-04-30T13:44:46;6.83;;;6.40;;
3299;SDS011;1662;49.310;8.134;2023-04-30T13:47:14;6.73;;;6.53;;
3299;SDS011;1662;49.310;8.134;2023-04-30T13:49:40;6.53;;;6.13;;
3299;SDS011;1662;49.310;8.134;2023-04-30T13:52:05;6.33;;;6.03;;
3299;SDS011;1662;49.310;8.134;2023-04-30T13:54:31;6.37;;;6.17;;
3299;SDS011;1662;49.310;8.134;2023-04-30T13:56:57;6.17;;;5.97;;
3299;SDS011;1662;49.310;8.134;2023-04-30T13:59:26;7.63;;;7.13;;
3299;SDS011;1662;49.310;8.134;2023-04-30T14:01:52;6.70;;;6.20;;
3299;SDS011;1662;49.310;8.134;2023-04-30T14:04:17;7.03;;;6.53;;
3299;SDS011;1662;49.310;8.134;2023-04-30T14:06:43;6.60;;;6.30;;
3299;SDS011;1662;49.310;8.134;2023-04-30T14:09:09;6.93;;;6.53;;
3299;SDS011;1662;49.310;8.134;2023-04-30T14:11:35;6.53;;;6.33;;
3299;SDS011;1662;49.310;8.134;2023-04-30T14:14:01;7.07;;;6.77;;
3299;SDS011;1662;49.310;8.134;2023-04-30T14:16:27;6.83;;;6.50;;
3299;SDS011;1662;49.310;8.134;2023-04-30T14:18:53;6.57;;;6.37;;
3299;SDS011;1662;49.310;8.134;2023-04-30T14:21:18;6.90;;;6.40;;
3299;SDS011;1662;49.310;8.134;2023-04-30T14:23:44;6.13;;;5.83;;
3299;SDS011;1662;49.310;8.134;2023-04-30T14:26:12;6.83;;;6.63;;
3299;SDS011;1662;49.310;8.134;2023-04-30T14:28:39;7.00;;;6.70;;
3299;SDS011;1662;49.310;8.134;2023-04-30T14:31:04;6.63;;;6.43;;
3299;SDS011;1662;49.310;8.134;2023-04-30T14:33:30;6.57;;;6.33;;
3299;SDS011;1662;49.310;8.134;2023-04-30T14:35:59;6.97;;;6.47;;
3299;SDS011;1662;49.310;8.134;2023-04-30T14:38:25;7.30;;;6.80;;
3299;SDS011;1662;49.310;8.134;2023-04-30T14:40:51;6.73;;;6.43;;
3299;SDS011;1662;49.310;8.134;2023-04-30T14:43:16;7.13;;;6.83;;
3299;SDS011;1662;49.310;8.134;2023-04-30T14:45:42;8.13;;;7.73;;
3299;SDS011;1662;49.310;8.134;2023-04-30T14:48:09;8.03;;;7.37;;
3299;SDS011;1662;49.310;8.134;2023-04-30T14:50:36;7.60;;;7.30;;
3299;SDS011;1662;49.310;8.134;2023-04-30T14:53:02;7.87;;;7.47;;
3299;SDS011;1662;49.310;8.134;2023-04-30T14:55:29;7.80;;;7.03;;
3299;SDS011;1662;49.310;8.134;2023-04-30T14:57:55;7.90;;;7.60;;
3299;SDS011;1662;49.310;8.134;2023-04-30T15:00:20;7.20;;;6.90;;
3299;SDS011;1662;49.310;8.134;2023-04-30T15:02:46;8.10;;;7.70;;
3299;SDS011;1662;49.310;8.134;2023-04-30T15:05:14;7.07;;;6.67;;
3299;SDS011;1662;49.310;8.134;2023-04-30T15:07:39;6.80;;;6.60;;
3299;SDS011;1662;49.310;8.134;2023-04-30T15:10:05;7.77;;;7.37;;
3299;SDS011;1662;49.310;8.134;2023-04-30T15:12:31;8.13;;;7.73;;
3299;SDS011;1662;49.310;8.134;2023-04-30T15:14:58;7.63;;;7.20;;
3299;SDS011;1662;49.310;8.134;2023-04-30T15:17:26;7.27;;;7.07;;
3299;SDS011;1662;49.310;8.134;2023-04-30T15:19:52;7.20;;;7.00;;
3299;SDS011;1662;49.310;8.134;2023-04-30T15:22:19;7.43;;;7.10;;
3299;SDS011;1662;49.310;8.134;2023-04-30T15:24:45;7.70;;;7.30;;
3299;SDS011;1662;49.310;8.134;2023-04-30T15:27:10;8.10;;;7.70;;
3299;SDS011;1662;49.310;8.134;2023-04-30T15:29:36;7.23;;;6.93;;
3299;SDS011;1662;49.310;8.134;2023-04-30T15:32:04;7.53;;;7.27;;
3299;SDS011;1662;49.310;8.134;2023-04-30T15:34:30;7.10;;;6.90;;
3299;SDS011;1662;49.310;8.134;2023-04-30T15:36:55;7.50;;;7.20;;